Memorial Field
KHOT : now visible

Airfield :











YOU CAN JOIN US ON...

 
LOGIN :

Register | Disclaimer

   EN    FR    IT 

 









Legend :    VFR   Marginal VFR   IFR   Intensive IFR   Very Intensive IFR
Visi :
Ceiling :
>= 8 km
>= 3000ft
5 to 8 km
1000 to 3000 ft
1500m to 5 km
500 to 1000 ft
800 to 1500m
200 to 500 ft
< 800m
< 200 ft
Symbols :   Thunderstorms  Fog  Heavy snow  Heavy precipitations  Wind > 20 kt






- Airport Elevation : 540 ft
- IATA code : HOT


KHOT - Memorial Field

CURRENT METAR :
  • 062353Z AUTO 19004KT 10SM CLR 23/15 A2999 RMK AO2 SLP150 T02280150 10256 20228 55006

EXPIRED METARs :
  • 062253Z AUTO 18005KT 10SM BKN090 24/14 A2998 RMK AO2 SLP149 T02390144
  • 062153Z AUTO 23008KT 10SM FEW095 25/14 A2999 RMK AO2 SLP150 T02500144

TAF KHOT
Valid from the 07 at 00:00 until the 08 at 00:00 UTC


062320Z 0700/0724 19004KT P6SM OVC100
FM070700 VRB03KT 6SM BR VCSH SCT015 OVC040
TEMPO 0707/0711 BKN015
FM071100 20005KT 5SM BR VCSH SCT007 BKN015
TEMPO 0711/0714 4SM -RA BR BKN007
FM071400 22008KT P6SM SCT015 OVC030
FM071900 22008KT P6SM SCT040 OVC100



MET'MAP, your aeronautical weather chart ! - Copyright ORBIFLY December 2007 - Disclaimer

ORBIFLY MET'MAP TEAM :

Programming & Development : Alexandra Zaïnal
Concept & original design : Baudouin d'Aumeries
Assistance for programming : Marc-Olivier Méhu
Technical & hardware support : Manuel Goepfert

Contact : metmap@orbifly.com




SOURCES & CREDITS :

   NOAA       Earth
Advisory